Time;durP1;ratioP1;P1;durP2;ratioP2;P2;SDS_P1;SDS_P2;PMS_P1;PMS_P2;Temp;Humidity;BMP_temperature;BMP_pressure;BME280_temperature;BME280_humidity;BME280_pressure;Samples;Min_cycle;Max_cycle;Signal;HPM_P1;HPM_P2
2023/04/19 00:01:04;;;;;;;23.40;11.20;;;;;;;5.20;100.00;102174.66;5053161;28;20047;-77
2023/04/19 00:03:30;;;;;;;18.48;11.18;;;;;;;5.19;100.00;102175.63;5022340;28;20029;-77
2023/04/19 00:05:58;;;;;;;31.65;14.35;;;;;;;5.18;100.00;102165.06;5038991;28;20471;-76
2023/04/19 00:08:27;;;;;;;22.48;10.73;;;;;;;5.25;100.00;102169.84;5055181;28;20068;-77
2023/04/19 00:10:52;;;;;;;31.10;14.27;;;;;;;5.39;100.00;102176.88;5054323;28;20025;-76
2023/04/19 00:13:20;;;;;;;31.63;14.32;;;;;;;5.27;100.00;102170.59;5038284;28;20040;-77
2023/04/19 00:15:46;;;;;;;28.65;12.93;;;;;;;5.23;100.00;102177.09;5038362;28;20037;-79
2023/04/19 00:18:12;;;;;;;21.92;9.95;;;;;;;5.24;100.00;102169.97;5022211;28;20099;-79
2023/04/19 00:20:38;;;;;;;24.45;11.43;;;;;;;5.37;100.00;102175.28;5038615;28;20039;-78
2023/04/19 00:23:03;;;;;;;17.65;9.88;;;;;;;5.33;100.00;102169.31;5021835;28;20387;-78
2023/04/19 00:25:30;;;;;;;22.63;10.60;;;;;;;5.26;100.00;102174.22;5038156;28;20096;-79
2023/04/19 00:27:56;;;;;;;21.70;10.95;;;;;;;5.21;100.00;102170.16;5055054;28;20048;-79
2023/04/19 00:30:22;;;;;;;21.10;10.10;;;;;;;5.27;100.00;102175.94;5054299;28;20021;-76
2023/04/19 00:32:48;;;;;;;31.92;13.93;;;;;;;5.28;100.00;102172.31;5021915;28;20075;-76
2023/04/19 00:35:13;;;;;;;27.63;12.57;;;;;;;5.13;100.00;102149.38;5021901;28;20037;-76
2023/04/19 00:37:39;;;;;;;33.05;13.65;;;;;;;5.05;100.00;102168.59;5021815;28;20455;-77
2023/04/19 00:40:05;;;;;;;28.15;13.07;;;;;;;4.87;100.00;102169.84;5021909;28;20094;-78
2023/04/19 00:42:31;;;;;;;20.83;8.70;;;;;;;4.62;100.00;102158.16;5038132;28;20031;-77
2023/04/19 00:44:57;;;;;;;26.45;13.18;;;;;;;4.51;100.00;102165.16;5021303;28;20410;-77
2023/04/19 00:47:22;;;;;;;25.67;11.30;;;;;;;4.34;100.00;102150.28;5037946;28;20387;-77
2023/04/19 00:49:48;;;;;;;19.08;8.45;;;;;;;4.30;100.00;102148.78;5037694;28;20028;-76
2023/04/19 00:52:14;;;;;;;29.95;13.93;;;;;;;4.25;100.00;102151.75;5021475;28;20388;-77
2023/04/19 00:54:42;;;;;;;28.95;13.10;;;;;;;4.21;100.00;102152.03;5021070;28;20373;-76
2023/04/19 00:57:08;;;;;;;29.35;13.07;;;;;;;4.08;100.00;102155.53;5054083;28;20475;-77
2023/04/19 00:59:34;;;;;;;29.08;12.32;;;;;;;3.95;100.00;102136.81;5037546;28;20028;-77
2023/04/19 01:02:00;;;;;;;29.08;13.80;;;;;;;3.82;100.00;102140.38;5021236;28;20024;-76
2023/04/19 01:04:25;;;;;;;27.05;13.65;;;;;;;3.68;100.00;102144.75;5037237;28;20029;-77
2023/04/19 01:06:51;;;;;;;29.92;13.70;;;;;;;3.55;100.00;102138.50;5037363;28;20107;-77
2023/04/19 01:09:17;;;;;;;27.75;12.70;;;;;;;3.48;100.00;102139.84;5037717;28;20118;-76
2023/04/19 01:11:42;;;;;;;27.23;13.13;;;;;;;3.50;100.00;102135.28;5037181;28;20024;-76
2023/04/19 01:14:08;;;;;;;23.88;10.95;;;;;;;3.50;100.00;102135.28;5020582;28;20399;-77
2023/04/19 01:16:35;;;;;;;31.92;13.32;;;;;;;3.43;100.00;102129.47;5053632;28;20029;-77
2023/04/19 01:19:01;;;;;;;21.30;10.50;;;;;;;3.52;100.00;102134.25;5037166;28;20037;-77
2023/04/19 01:21:29;;;;;;;32.20;14.68;;;;;;;3.64;100.00;102137.06;5021066;28;20036;-76
2023/04/19 01:23:55;;;;;;;22.80;11.05;;;;;;;3.61;100.00;102127.47;5037561;28;20033;-77
2023/04/19 01:26:20;;;;;;;33.03;14.40;;;;;;;3.69;100.00;102135.81;5036986;28;20029;-79
2023/04/19 01:28:48;;;;;;;27.83;12.73;;;;;;;3.71;100.00;102130.41;5037304;28;20025;-79
2023/04/19 01:31:14;;;;;;;24.48;12.18;;;;;;;3.75;100.00;102118.63;5020398;28;20095;-78
2023/04/19 01:33:39;;;;;;;25.35;11.02;;;;;;;3.86;100.00;102124.09;5053277;28;20032;-77
2023/04/19 01:36:05;;;;;;;30.08;12.73;;;;;;;3.88;100.00;102121.34;5020752;28;20098;-78
2023/04/19 01:38:33;;;;;;;29.10;14.00;;;;;;;3.85;100.00;102118.88;5036871;28;20036;-77
2023/04/19 01:40:59;;;;;;;34.20;12.30;;;;;;;3.78;100.00;102121.06;5036507;28;20031;-78
2023/04/19 01:43:25;;;;;;;22.65;11.13;;;;;;;3.58;100.00;102102.88;5037139;28;20029;-78
2023/04/19 01:45:50;;;;;;;26.13;11.82;;;;;;;3.50;100.00;102092.75;5036154;28;20032;-77
2023/04/19 01:48:16;;;;;;;28.35;13.32;;;;;;;3.56;100.00;102108.28;5036748;28;20048;-77
2023/04/19 01:50:41;;;;;;;29.67;13.45;;;;;;;3.56;100.00;102104.78;5036937;28;20029;-77
2023/04/19 01:53:07;;;;;;;23.00;11.52;;;;;;;3.63;100.00;102116.75;5035339;28;20032;-80
2023/04/19 01:55:33;;;;;;;31.67;13.68;;;;;;;3.36;100.00;102082.09;5020416;28;20403;-77
2023/04/19 01:57:58;;;;;;;30.52;13.30;;;;;;;3.38;100.00;102106.78;5036796;28;20386;-77
2023/04/19 02:00:24;;;;;;;24.70;12.93;;;;;;;3.36;100.00;102112.22;5052691;28;20029;-78
2023/04/19 02:02:50;;;;;;;26.10;13.00;;;;;;;3.20;100.00;102084.88;5036622;28;20032;-77
2023/04/19 02:05:17;;;;;;;26.77;12.65;;;;;;;3.32;100.00;102100.06;5036660;28;20105;-77
2023/04/19 02:07:43;;;;;;;15.15;7.68;;;;;;;3.40;100.00;102105.75;5036194;28;20041;-78
2023/04/19 02:10:12;;;;;;;23.70;11.00;;;;;;;3.24;100.00;102089.06;5052589;28;20040;-79
2023/04/19 02:12:39;;;;;;;23.73;10.82;;;;;;;3.26;100.00;102095.13;5020394;28;20391;-77
2023/04/19 02:15:06;;;;;;;22.38;11.07;;;;;;;3.35;100.00;102099.88;5019896;28;20061;-77
2023/04/19 02:17:31;;;;;;;21.30;10.38;;;;;;;3.35;100.00;102093.69;5036158;28;20368;-77
2023/04/19 02:19:57;;;;;;;25.67;12.68;;;;;;;3.41;100.00;102098.63;5052613;28;20025;-77
2023/04/19 02:22:23;;;;;;;25.63;12.55;;;;;;;3.25;100.00;102093.41;5036399;28;20183;-77
2023/04/19 02:24:49;;;;;;;17.85;9.02;;;;;;;3.09;100.00;102099.66;5051613;28;20116;-78
2023/04/19 02:27:15;;;;;;;30.63;13.70;;;;;;;2.99;100.00;102092.34;5036193;28;20034;-77
2023/04/19 02:29:40;;;;;;;30.58;12.70;;;;;;;2.97;100.00;102092.47;5035501;28;20033;-77
2023/04/19 02:32:06;;;;;;;24.50;11.88;;;;;;;2.90;100.00;102085.81;5052369;28;20032;-77
2023/04/19 02:34:33;;;;;;;26.30;12.05;;;;;;;2.98;100.00;102098.63;5019752;28;20108;-77
2023/04/19 02:36:59;;;;;;;30.85;13.20;;;;;;;2.91;100.00;102090.19;5036304;28;20053;-78
2023/04/19 02:39:25;;;;;;;20.35;10.45;;;;;;;2.95;100.00;102098.81;5019722;28;20490;-77
2023/04/19 02:41:51;;;;;;;27.20;11.40;;;;;;;2.90;100.00;102083.16;5052621;28;20030;-77
2023/04/19 02:44:16;;;;;;;24.65;11.90;;;;;;;2.97;100.00;102097.78;5019205;28;20041;-77
2023/04/19 02:46:49;;;;;;;23.50;12.60;;;;;;;2.89;100.00;102081.47;5036055;28;20033;-77
2023/04/19 02:49:15;;;;;;;24.00;11.48;;;;;;;2.79;100.00;102089.13;5035881;28;20110;-77
2023/04/19 02:51:41;;;;;;;26.55;12.38;;;;;;;2.76;100.00;102086.66;5035302;28;20468;-77
2023/04/19 02:54:06;;;;;;;22.92;10.98;;;;;;;2.73;100.00;102078.88;5035528;28;20037;-77
2023/04/19 02:56:32;;;;;;;22.33;11.88;;;;;;;2.74;100.00;102071.75;5052394;28;20037;-77
2023/04/19 02:59:01;;;;;;;20.27;10.25;;;;;;;2.86;100.00;102079.00;5018901;28;20036;-78
2023/04/19 03:01:27;;;;;;;28.98;11.95;;;;;;;2.86;100.00;102077.19;5019588;28;20060;-78
2023/04/19 03:03:52;;;;;;;18.40;9.75;;;;;;;2.90;100.00;102082.31;5051913;28;20486;-77
2023/04/19 03:06:18;;;;;;;23.10;11.68;;;;;;;2.85;100.00;102069.28;5019518;28;20375;-78
2023/04/19 03:08:44;;;;;;;23.25;11.60;;;;;;;2.88;100.00;102079.72;5052327;28;20352;-78
2023/04/19 03:11:10;;;;;;;19.98;9.50;;;;;;;2.85;100.00;102070.16;5051791;28;20471;-78
2023/04/19 03:13:36;;;;;;;23.40;11.35;;;;;;;2.99;100.00;102082.59;5035766;28;20126;-78
2023/04/19 03:16:02;;;;;;;24.05;11.55;;;;;;;3.03;100.00;102084.09;5052047;28;20482;-78
2023/04/19 03:18:28;;;;;;;22.23;11.45;;;;;;;3.07;100.00;102080.31;5035065;28;20090;-78
2023/04/19 03:20:54;;;;;;;26.50;12.73;;;;;;;2.96;100.00;102080.09;5035376;28;20044;-78
2023/04/19 03:23:20;;;;;;;20.55;9.48;;;;;;;2.88;100.00;102070.91;5035637;28;20037;-78
2023/04/19 03:25:45;;;;;;;22.40;10.32;;;;;;;2.84;100.00;102067.59;5035477;28;20436;-77
2023/04/19 03:28:11;;;;;;;25.58;12.20;;;;;;;2.96;100.00;102069.47;5052127;28;20036;-77
2023/04/19 03:30:36;;;;;;;18.88;8.30;;;;;;;2.89;100.00;102072.63;5068823;28;20041;-77
2023/04/19 03:33:02;;;;;;;14.50;7.68;;;;;;;2.92;100.00;102069.78;5035417;28;20029;-78
2023/04/19 03:35:29;;;;;;;27.05;12.63;;;;;;;2.97;100.00;102063.25;5036498;28;20056;-78
2023/04/19 03:37:55;;;;;;;5.20;4.47;;;;;;;3.15;100.00;102071.00;5055026;28;20498;-78
2023/04/19 03:40:20;;;;;;;15.57;8.23;;;;;;;3.25;100.00;102065.00;5055895;28;20498;-77
2023/04/19 03:42:46;;;;;;;20.13;10.23;;;;;;;3.38;100.00;102065.09;5039200;28;20525;-77
2023/04/19 03:45:12;;;;;;;15.68;8.15;;;;;;;3.46;100.00;102076.09;5022643;28;20442;-77
2023/04/19 03:47:38;;;;;;;20.77;9.50;;;;;;;3.52;100.00;102075.75;5039258;28;20090;-77
2023/04/19 03:50:04;;;;;;;20.90;9.02;;;;;;;3.50;100.00;102061.69;5038773;28;20036;-77
2023/04/19 03:52:30;;;;;;;25.13;11.63;;;;;;;3.58;100.00;102063.00;5039059;28;20091;-77
2023/04/19 03:54:57;;;;;;;10.85;5.70;;;;;;;3.59;100.00;102065.53;5055353;28;20403;-77
2023/04/19 03:57:23;;;;;;;15.07;7.80;;;;;;;3.56;100.00;102067.56;5055742;28;20071;-77
2023/04/19 03:59:49;;;;;;;25.35;12.07;;;;;;;3.48;100.00;102058.25;5022307;28;20538;-77
2023/04/19 04:02:17;;;;;;;10.23;7.15;;;;;;;3.45;100.00;102066.44;5022548;28;20493;-77
2023/04/19 04:04:42;;;;;;;19.10;8.82;;;;;;;3.41;100.00;102048.94;5038833;28;20047;-76
2023/04/19 04:07:08;;;;;;;20.08;9.77;;;;;;;3.49;100.00;102056.44;5022073;28;20033;-77
2023/04/19 04:09:34;;;;;;;17.27;8.43;;;;;;;3.50;100.00;102066.16;5038867;28;20478;-76
2023/04/19 04:11:59;;;;;;;21.23;10.90;;;;;;;3.56;100.00;102054.25;5022408;28;20431;-77
2023/04/19 04:14:25;;;;;;;14.38;8.02;;;;;;;3.55;100.00;102056.06;5071679;28;20036;-77
2023/04/19 04:16:51;;;;;;;18.88;7.97;;;;;;;3.61;100.00;102057.47;5054907;28;20052;-78
2023/04/19 04:19:18;;;;;;;14.82;8.32;;;;;;;3.65;100.00;102048.34;5055375;28;20033;-77
2023/04/19 04:21:43;;;;;;;18.35;8.10;;;;;;;3.60;100.00;102034.47;5038148;28;20082;-78
2023/04/19 04:24:09;;;;;;;11.20;5.53;;;;;;;3.51;100.00;102035.94;5038160;28;20407;-77
2023/04/19 04:26:38;;;;;;;12.00;5.80;;;;;;;3.46;100.00;102040.69;5055045;28;20040;-78
2023/04/19 04:29:04;;;;;;;20.02;10.43;;;;;;;3.44;100.00;102027.50;5038857;28;20127;-78
2023/04/19 04:31:34;;;;;;;11.02;8.18;;;;;;;3.56;100.00;102020.53;5021440;28;20025;-78
2023/04/19 04:34:02;;;;;;;12.77;8.10;;;;;;;3.77;100.00;102039.56;5038818;28;20025;-77
2023/04/19 04:36:28;;;;;;;14.68;7.82;;;;;;;3.84;100.00;102050.69;5037633;28;20029;-78
2023/04/19 04:38:55;;;;;;;20.10;9.80;;;;;;;3.75;100.00;102041.47;5054446;28;20390;-79
2023/04/19 04:41:22;;;;;;;14.60;7.05;;;;;;;3.70;100.00;102041.75;5038448;28;20031;-78
2023/04/19 04:43:50;;;;;;;20.35;8.48;;;;;;;3.65;100.00;102048.34;5020909;28;20440;-78
2023/04/19 04:46:18;;;;;;;16.55;8.52;;;;;;;3.65;100.00;102043.00;5054114;28;20029;-77
2023/04/19 04:48:44;;;;;;;17.42;7.80;;;;;;;3.70;100.00;102046.22;5021686;28;20040;-77
2023/04/19 04:51:10;;;;;;;18.98;11.75;;;;;;;3.74;100.00;102043.28;5037471;28;20510;-78
2023/04/19 04:53:35;;;;;;;10.70;6.85;;;;;;;3.73;100.00;102040.69;5037201;28;20057;-77
2023/04/19 04:56:01;;;;;;;12.13;7.25;;;;;;;3.77;100.00;102044.88;5037871;28;20056;-76
2023/04/19 04:58:27;;;;;;;9.63;6.22;;;;;;;3.80;100.00;102046.50;5054073;28;20505;-79
2023/04/19 05:00:53;;;;;;;11.88;6.30;;;;;;;3.69;100.00;102017.94;5020469;28;20072;-79
2023/04/19 05:03:19;;;;;;;17.48;9.23;;;;;;;3.83;100.00;102039.16;5053649;28;20025;-77
2023/04/19 05:05:44;;;;;;;10.73;5.63;;;;;;;3.91;100.00;102042.16;5037840;28;20043;-77
2023/04/19 05:08:10;;;;;;;17.13;6.40;;;;;;;3.73;100.00;102032.72;5021211;28;20036;-77
2023/04/19 05:10:36;;;;;;;15.05;8.02;;;;;;;3.67;100.00;102036.63;5053874;28;20028;-77
2023/04/19 05:13:01;;;;;;;14.05;6.95;;;;;;;3.65;100.00;102043.88;5021007;28;20425;-77
2023/04/19 05:15:27;;;;;;;13.73;6.70;;;;;;;3.55;100.00;102031.25;5037203;28;20029;-76
2023/04/19 05:17:52;;;;;;;13.48;7.57;;;;;;;3.61;100.00;102049.50;5053762;28;20079;-77
2023/04/19 05:20:18;;;;;;;13.68;7.28;;;;;;;3.66;100.00;102044.75;5053774;28;20029;-77
2023/04/19 05:22:44;;;;;;;7.47;5.25;;;;;;;3.66;100.00;102034.09;5021242;28;20052;-76
2023/04/19 05:25:10;;;;;;;15.30;8.07;;;;;;;3.78;100.00;102046.59;5037398;28;20043;-77
2023/04/19 05:27:36;;;;;;;14.45;8.27;;;;;;;3.64;100.00;102010.25;5020866;28;20475;-77
2023/04/19 05:30:05;;;;;;;11.32;7.32;;;;;;;3.90;100.00;102043.13;5053760;28;20039;-77
2023/04/19 05:32:31;;;;;;;12.45;7.03;;;;;;;3.94;100.00;102055.28;5053426;28;20028;-77
2023/04/19 05:34:56;;;;;;;12.30;5.70;;;;;;;3.94;100.00;102039.31;5036766;28;20368;-75
2023/04/19 05:37:23;;;;;;;22.38;8.75;;;;;;;4.04;100.00;102049.34;5053432;28;20040;-77
2023/04/19 05:39:49;;;;;;;9.73;5.53;;;;;;;4.10;100.00;102056.91;5037047;28;20037;-77
2023/04/19 05:42:14;;;;;;;15.75;7.28;;;;;;;4.02;100.00;102052.09;5037002;28;20474;-77
2023/04/19 05:44:40;;;;;;;16.38;8.25;;;;;;;4.18;100.00;102065.25;5036920;28;20029;-77
2023/04/19 05:47:05;;;;;;;13.02;6.32;;;;;;;4.16;100.00;102065.34;5036973;28;20041;-77
2023/04/19 05:49:31;;;;;;;24.13;9.63;;;;;;;4.22;100.00;102066.75;5053482;28;20107;-77
2023/04/19 05:51:57;;;;;;;13.63;5.68;;;;;;;4.30;100.00;102067.09;5053083;28;20039;-77
2023/04/19 05:54:22;;;;;;;16.10;8.95;;;;;;;4.40;100.00;102062.00;5036339;28;20029;-77
2023/04/19 05:56:48;;;;;;;14.63;8.18;;;;;;;4.47;100.00;102057.94;5020352;28;20052;-77
2023/04/19 05:59:14;;;;;;;13.65;6.60;;;;;;;4.53;100.00;102056.72;5035813;28;20049;-77
2023/04/19 06:01:39;;;;;;;15.18;7.72;;;;;;;4.57;100.00;102050.19;5036273;28;20086;-77
2023/04/19 06:04:05;;;;;;;17.42;11.45;;;;;;;4.44;100.00;102020.88;5020254;28;20041;-77
2023/04/19 06:06:31;;;;;;;34.50;9.60;;;;;;;4.75;100.00;102062.25;5053071;28;20036;-77
2023/04/19 06:08:56;;;;;;;21.38;10.13;;;;;;;4.83;100.00;102059.91;5020181;28;20082;-76
2023/04/19 06:11:23;;;;;;;15.30;6.75;;;;;;;4.94;100.00;102056.50;5052696;28;20029;-77
2023/04/19 06:13:50;;;;;;;15.90;6.47;;;;;;;4.90;100.00;102041.69;5019828;28;20060;-77
2023/04/19 06:16:15;;;;;;;15.07;7.43;;;;;;;5.16;100.00;102058.53;5052623;28;20033;-77
2023/04/19 06:18:42;;;;;;;12.90;6.72;;;;;;;5.29;100.00;102058.47;5052583;28;20491;-79
2023/04/19 06:21:07;;;;;;;10.02;5.20;;;;;;;5.62;100.00;102047.19;5036258;28;20025;-78
2023/04/19 06:23:33;;;;;;;10.23;6.53;;;;;;;6.18;100.00;102067.16;5019404;28;20036;-78
2023/04/19 06:25:59;;;;;;;15.95;6.70;;;;;;;6.26;100.00;102072.78;5019802;28;20059;-77
2023/04/19 06:28:24;;;;;;;13.80;6.65;;;;;;;6.14;100.00;102067.41;5052414;28;20059;-77
2023/04/19 06:30:50;;;;;;;6.95;4.80;;;;;;;6.10;100.00;102059.72;5035961;28;20391;-77
2023/04/19 06:33:15;;;;;;;15.38;7.53;;;;;;;6.10;100.00;102063.25;5052256;28;20051;-76
2023/04/19 06:35:41;;;;;;;18.00;7.55;;;;;;;6.05;100.00;102064.56;5036162;28;20383;-77
2023/04/19 06:38:07;;;;;;;13.75;6.80;;;;;;;6.01;100.00;102069.28;5036106;28;20090;-77
2023/04/19 06:40:33;;;;;;;12.05;6.97;;;;;;;6.18;100.00;102076.03;5035681;28;20456;-78
2023/04/19 06:42:58;;;;;;;13.55;6.28;;;;;;;6.31;100.00;102081.31;5036160;28;20040;-76
2023/04/19 06:45:24;;;;;;;12.43;6.35;;;;;;;6.63;100.00;102081.53;5036160;28;20040;-77
2023/04/19 06:47:50;;;;;;;13.80;6.63;;;;;;;6.65;100.00;102076.06;5035655;28;20033;-77
2023/04/19 06:50:16;;;;;;;15.25;6.50;;;;;;;6.71;100.00;102073.78;5052116;28;20486;-77
2023/04/19 06:52:41;;;;;;;16.08;7.78;;;;;;;6.93;100.00;102072.09;5069238;28;20044;-77
2023/04/19 06:55:08;;;;;;;17.48;7.22;;;;;;;6.88;100.00;102067.13;5019303;28;20036;-77
2023/04/19 06:57:34;;;;;;;7.43;4.93;;;;;;;7.01;100.00;102075.91;5019487;28;20541;-76
2023/04/19 07:00:00;;;;;;;13.70;6.55;;;;;;;7.23;100.00;102079.56;5035945;28;20024;-76
2023/04/19 07:02:26;;;;;;;9.77;5.20;;;;;;;7.30;100.00;102050.47;5019290;28;20143;-78
2023/04/19 07:04:51;;;;;;;15.98;8.82;;;;;;;7.56;100.00;102064.44;5035395;28;20037;-78
2023/04/19 07:07:17;;;;;;;9.82;4.88;;;;;;;7.76;100.00;102066.34;5019440;28;20490;-77
2023/04/19 07:09:42;;;;;;;13.38;6.72;;;;;;;7.53;100.00;102070.88;5020916;28;20383;-76
2023/04/19 07:12:10;;;;;;;19.45;8.15;;;;;;;7.45;100.00;102074.16;5056137;28;20177;-77
2023/04/19 07:14:36;;;;;;;11.82;7.07;;;;;;;8.75;100.00;102059.81;5023310;28;20033;-77
2023/04/19 07:17:04;;;;;;;13.00;6.07;;;;;;;8.18;100.00;102073.63;5055868;28;20032;-76
2023/04/19 07:19:30;;;;;;;14.80;7.45;;;;;;;8.41;100.00;102071.72;5023289;28;20036;-77
2023/04/19 07:21:55;;;;;;;21.88;6.85;;;;;;;8.11;100.00;102068.78;5057335;28;20033;-77
2023/04/19 07:24:21;;;;;;;11.00;5.57;;;;;;;7.87;100.00;102069.00;5056214;28;20074;-78
2023/04/19 07:26:47;;;;;;;15.43;5.68;;;;;;;7.69;100.00;102067.81;5055740;28;20029;-78
2023/04/19 07:29:12;;;;;;;12.85;7.47;;;;;;;7.70;100.00;102061.50;5039263;28;20395;-77
2023/04/19 07:31:40;;;;;;;12.07;6.65;;;;;;;8.31;100.00;102072.50;5039238;28;20103;-78
2023/04/19 07:34:06;;;;;;;10.30;6.68;;;;;;;9.12;100.00;102070.06;5039228;28;20479;-77
2023/04/19 07:36:34;;;;;;;14.35;8.32;;;;;;;9.91;100.00;102072.84;5022588;28;20071;-78
2023/04/19 07:38:59;;;;;;;13.48;6.63;;;;;;;11.38;89.43;102070.81;5055907;28;20467;-78
2023/04/19 07:41:27;;;;;;;10.77;5.72;;;;;;;12.36;85.86;102071.88;5055750;28;20094;-78
2023/04/19 07:43:53;;;;;;;11.88;6.85;;;;;;;11.95;82.36;102067.94;5023247;28;20078;-77
2023/04/19 07:46:19;;;;;;;21.73;10.75;;;;;;;10.78;81.69;102069.28;5039221;28;20489;-78
2023/04/19 07:48:45;;;;;;;10.52;6.53;;;;;;;10.34;86.94;102070.75;5055318;28;20029;-76
2023/04/19 07:51:11;;;;;;;13.88;7.30;;;;;;;11.96;83.37;102070.50;5039277;28;20029;-77
2023/04/19 07:53:40;;;;;;;14.40;6.13;;;;;;;13.33;74.33;102070.00;5022584;28;20045;-77
2023/04/19 07:56:07;;;;;;;16.50;8.05;;;;;;;14.29;72.13;102078.56;5022289;28;20029;-77
2023/04/19 07:58:33;;;;;;;11.93;7.43;;;;;;;14.99;64.17;102069.03;5022612;28;20090;-77
2023/04/19 08:01:00;;;;;;;14.75;7.80;;;;;;;15.57;63.83;102066.97;5055092;28;20025;-77
2023/04/19 08:03:26;;;;;;;9.52;5.25;;;;;;;16.03;58.72;102080.63;5038976;28;20517;-78
2023/04/19 08:05:52;;;;;;;10.88;6.72;;;;;;;16.42;57.40;102076.97;5038914;28;20037;-78
2023/04/19 08:08:18;;;;;;;14.30;7.90;;;;;;;16.64;54.78;102070.66;5055192;28;20036;-79
2023/04/19 08:10:43;;;;;;;17.10;8.23;;;;;;;16.96;55.32;102065.09;5038843;28;20040;-79
2023/04/19 08:13:09;;;;;;;16.02;8.25;;;;;;;17.56;55.36;102070.34;5038563;28;20051;-78
2023/04/19 08:15:35;;;;;;;12.10;7.55;;;;;;;18.17;51.82;102063.72;5038428;28;20036;-77
2023/04/19 08:18:03;;;;;;;12.95;7.68;;;;;;;18.21;48.42;102065.03;5055077;28;20083;-79
2023/04/19 08:20:29;;;;;;;14.90;7.90;;;;;;;17.92;46.07;102061.38;5022303;28;20096;-78
2023/04/19 08:22:55;;;;;;;11.73;6.80;;;;;;;17.75;46.35;102070.75;5037652;28;20029;-78
2023/04/19 08:25:25;;;;;;;10.73;6.25;;;;;;;17.60;46.63;102068.09;5038457;28;20029;-79
2023/04/19 08:27:51;;;;;;;16.27;7.90;;;;;;;17.97;47.47;102064.38;5038744;28;20476;-79
2023/04/19 08:30:20;;;;;;;14.60;7.45;;;;;;;18.11;45.46;102050.91;5038867;28;20032;-77
2023/04/19 08:32:45;;;;;;;14.40;8.57;;;;;;;18.27;45.73;102064.25;5054597;28;20390;-78
2023/04/19 08:35:12;;;;;;;11.48;6.75;;;;;;;18.65;46.08;102062.03;5038249;28;20095;-78
2023/04/19 08:37:38;;;;;;;13.02;6.97;;;;;;;18.63;44.40;102053.25;5038085;28;20044;-79
2023/04/19 08:40:04;;;;;;;14.80;7.93;;;;;;;18.53;43.52;102052.75;5054517;28;20368;-77
2023/04/19 08:42:33;;;;;;;13.15;8.70;;;;;;;18.29;43.80;102056.72;5038032;28;20040;-78
2023/04/19 08:45:06;;;;;;;8.82;5.65;;;;;;;18.15;44.92;102044.88;5021719;28;20041;-77
2023/04/19 08:47:33;;;;;;;13.60;6.90;;;;;;;18.25;45.07;102049.97;5038336;28;20032;-77
2023/04/19 08:50:11;;;;;;;12.68;10.15;;;;;;;18.65;42.46;102048.41;5019776;28;20556;-79
2023/04/19 08:52:49;;;;;;;13.82;6.80;;;;;;;18.52;45.20;102050.19;5022155;28;20071;-81
2023/04/19 08:55:32;;;;;;;11.65;6.50;;;;;;;19.09;43.01;102028.22;5021179;28;20060;-82
2023/04/19 08:58:23;;;;;;;12.87;9.77;;;;;;;19.23;41.60;102041.91;5021841;28;20059;-81
2023/04/19 09:00:49;;;;;;;15.68;7.03;;;;;;;18.70;43.98;102057.91;5054059;28;20036;-81
2023/04/19 09:03:14;;;;;;;11.43;7.55;;;;;;;18.12;44.32;102036.22;5037685;28;20040;-80
2023/04/19 09:06:08;;;;;;;12.55;10.90;;;;;;;17.11;44.90;102039.63;5037589;28;20430;-82
2023/04/19 09:08:40;;;;;;;9.82;6.85;;;;;;;14.95;51.74;102048.72;5037471;28;20025;-79
2023/04/19 09:11:06;;;;;;;10.93;6.72;;;;;;;14.27;54.35;102028.31;5020749;28;20033;-80
2023/04/19 09:13:32;;;;;;;13.48;9.57;;;;;;;15.08;51.59;102007.56;5037063;28;20390;-79
2023/04/19 09:16:03;;;;;;;12.70;8.23;;;;;;;16.39;50.71;102028.47;5053512;28;20078;-81
2023/04/19 09:18:29;;;;;;;10.48;7.35;;;;;;;18.34;45.29;102018.88;5021550;28;20116;-80
2023/04/19 09:20:57;;;;;;;8.27;6.85;;;;;;;20.11;41.73;102042.88;5053535;28;20115;-80
2023/04/19 09:23:27;;;;;;;17.65;8.20;;;;;;;21.03;39.18;102051.25;5037480;28;20116;-79
2023/04/19 09:26:20;;;;;;;16.33;9.63;;;;;;;21.29;36.57;102032.03;5021261;28;20035;-80
2023/04/19 09:29:03;;;;;;;17.27;9.05;;;;;;;20.79;40.10;102028.16;5054426;28;20021;-79
2023/04/19 09:31:31;;;;;;;14.18;10.40;;;;;;;21.40;35.74;102046.94;5020818;28;20036;-79
2023/04/19 09:33:57;;;;;;;14.60;7.70;;;;;;;19.36;40.29;102049.31;5019680;28;20044;-80
2023/04/19 09:36:31;;;;;;;17.02;8.88;;;;;;;19.40;42.11;102042.44;5019468;28;20390;-79
2023/04/19 09:38:58;;;;;;;10.35;7.50;;;;;;;19.14;41.25;102045.84;5035926;28;20033;-78
2023/04/19 09:41:24;;;;;;;16.15;9.20;;;;;;;16.80;47.44;102049.81;5051285;28;20025;-79
2023/04/19 09:44:27;;;;;;;15.85;8.82;;;;;;;15.35;50.00;102049.63;5051578;28;20468;-77
2023/04/19 09:46:54;;;;;;;15.35;8.27;;;;;;;14.19;53.78;102042.69;5036618;28;20032;-81
2023/04/19 09:49:22;;;;;;;17.85;10.15;;;;;;;13.80;57.60;102050.56;5035788;28;20033;-81
2023/04/19 09:51:55;;;;;;;18.40;10.27;;;;;;;14.87;58.28;102052.31;5053084;28;20483;-81
2023/04/19 09:54:27;;;;;;;16.02;10.32;;;;;;;15.01;55.82;102039.09;5053631;28;20036;-81
2023/04/19 09:56:53;;;;;;;14.43;9.73;;;;;;;14.71;55.16;102033.38;5037159;28;20060;-80
2023/04/19 09:59:18;;;;;;;23.13;9.70;;;;;;;14.53;59.29;102047.13;5054185;28;20376;-81
2023/04/19 10:01:47;;;;;;;13.80;9.13;;;;;;;14.30;59.06;102044.22;5055261;28;20025;-80
2023/04/19 10:04:22;;;;;;;13.30;8.77;;;;;;;14.23;58.70;102026.97;5054354;28;20099;-80
2023/04/19 10:06:52;;;;;;;24.80;7.47;;;;;;;13.96;61.04;102034.38;5021822;28;20036;-79
2023/04/19 10:09:19;;;;;;;18.83;11.55;;;;;;;13.77;61.07;102038.22;5020969;28;20499;-80
2023/04/19 10:11:49;;;;;;;9.68;6.47;;;;;;;13.46;60.87;102032.56;5021933;28;20114;-80
2023/04/19 10:14:16;;;;;;;19.08;12.35;;;;;;;13.21;64.22;102034.31;5053465;28;20040;-79
2023/04/19 10:20:33;;;;;;;16.30;8.27;;;;;;;12.85;66.88;102047.94;5054142;28;20570;-77
2023/04/19 10:23:01;;;;;;;14.80;9.05;;;;;;;12.89;66.23;102037.69;5036226;28;20104;-77
2023/04/19 10:25:28;;;;;;;13.63;8.40;;;;;;;12.82;68.57;102033.94;5052307;28;20107;-78
2023/04/19 10:27:57;;;;;;;22.08;10.43;;;;;;;12.64;67.90;102034.81;5036612;28;20032;-77
2023/04/19 10:30:25;;;;;;;10.27;8.05;;;;;;;12.68;68.10;102041.59;5052861;28;20372;-77
2023/04/19 10:32:54;;;;;;;14.68;8.38;;;;;;;12.73;69.19;102038.44;5020334;28;20045;-77
2023/04/19 10:35:38;;;;;;;17.58;10.85;;;;;;;12.73;69.73;102036.56;5052824;28;20032;-77
2023/04/19 10:38:15;;;;;;;18.98;11.10;;;;;;;12.85;70.72;102028.22;5020503;28;20094;-78
2023/04/19 10:40:54;;;;;;;19.85;10.98;;;;;;;12.93;67.92;102034.50;5036120;28;20033;-77
2023/04/19 10:43:20;;;;;;;16.98;9.45;;;;;;;12.67;69.36;102015.59;5035959;28;20128;-77
2023/04/19 10:45:46;;;;;;;20.45;11.38;;;;;;;12.42;70.97;102038.88;5051834;28;20128;-79
2023/04/19 10:48:32;;;;;;;22.40;12.50;;;;;;;12.40;72.24;102035.47;5019232;28;20538;-79
2023/04/19 10:51:05;;;;;;;18.30;10.80;;;;;;;12.58;69.58;102023.81;5052535;28;20029;-77
2023/04/19 10:53:47;;;;;;;21.35;11.55;;;;;;;12.61;70.75;102016.25;5035759;28;20075;-77
2023/04/19 10:56:34;;;;;;;20.90;10.80;;;;;;;12.80;69.27;102025.97;5051969;28;20052;-78
2023/04/19 10:59:10;;;;;;;15.75;9.00;;;;;;;12.86;69.39;102025.34;5042328;28;20045;-78
2023/04/19 11:01:43;;;;;;;17.33;11.63;;;;;;;12.98;67.18;102023.22;5035902;28;20131;-78
2023/04/19 11:04:10;;;;;;;;;;;;;;;13.13;65.87;102013.50;5036201;28;20052;-77
2023/04/19 11:06:38;;;;;;;18.83;12.60;;;;;;;13.14;66.06;102017.06;5068983;28;19909;-77
2023/04/19 11:09:09;;;;;;;20.95;12.55;;;;;;;13.09;66.71;102017.53;5035693;28;20037;-77
2023/04/19 11:11:35;;;;;;;16.52;8.63;;;;;;;13.18;67.56;102016.56;5019761;28;20035;-77
2023/04/19 11:14:02;;;;;;;19.40;12.18;;;;;;;13.51;65.95;102011.31;5052237;28;20031;-79
2023/04/19 11:16:27;;;;;;;19.10;12.65;;;;;;;14.03;63.32;102011.06;5052121;28;20036;-78
2023/04/19 11:18:54;;;;;;;21.92;12.68;;;;;;;14.59;61.13;102005.84;5035445;28;20040;-77